createdAt,value
2018-12-19T00:02:10.274Z,44.80
2018-12-19T00:04:37.495Z,44.90
2018-12-19T00:07:04.702Z,44.80
2018-12-19T00:09:32.815Z,44.70
2018-12-19T00:12:00.829Z,44.70
2018-12-19T00:14:28.048Z,44.60
2018-12-19T00:16:55.728Z,44.50
2018-12-19T00:19:22.950Z,44.70
2018-12-19T00:21:50.207Z,44.50
2018-12-19T00:24:17.428Z,44.60
2018-12-19T00:26:44.690Z,44.80
2018-12-19T00:29:11.903Z,44.70
2018-12-19T00:31:39.945Z,44.70
2018-12-19T00:34:07.160Z,44.70
2018-12-19T00:36:35.205Z,44.60
2018-12-19T00:39:09.520Z,44.60
2018-12-19T00:41:35.424Z,44.40
2018-12-19T00:44:02.654Z,44.50
2018-12-19T00:46:29.929Z,44.50
2018-12-19T00:48:57.947Z,44.40
2018-12-19T00:51:25.975Z,44.50
2018-12-19T00:53:54.732Z,44.60
2018-12-19T00:56:21.946Z,44.50
2018-12-19T00:58:50.148Z,44.40
2018-12-19T01:01:17.385Z,44.50
2018-12-19T01:03:45.471Z,44.50
2018-12-19T01:06:12.778Z,44.40
2018-12-19T01:08:40.022Z,44.40
2018-12-19T01:11:08.178Z,44.50
2018-12-19T01:13:36.310Z,44.70
2018-12-19T01:16:04.324Z,44.00
2018-12-19T01:18:31.584Z,44.40
2018-12-19T01:20:58.842Z,44.50
2018-12-19T01:23:26.110Z,44.30
2018-12-19T01:25:55.488Z,44.50
2018-12-19T01:28:22.707Z,44.30
2018-12-19T01:30:49.921Z,44.30
2018-12-19T01:33:18.064Z,44.80
2018-12-19T01:35:46.396Z,44.50
2018-12-19T01:38:13.782Z,44.50
2018-12-19T01:40:40.995Z,44.80
2018-12-19T01:43:08.221Z,44.80
2018-12-19T01:45:35.442Z,44.70
2018-12-19T01:48:02.665Z,44.80
2018-12-19T01:50:29.935Z,44.80
2018-12-19T01:52:57.159Z,44.70
2018-12-19T01:55:26.284Z,44.90
2018-12-19T01:57:54.475Z,44.80
2018-12-19T02:00:24.602Z,44.50
2018-12-19T02:02:52.749Z,44.40
2018-12-19T02:05:19.963Z,44.50
2018-12-19T02:07:47.215Z,44.40
2018-12-19T02:10:15.519Z,45.00
2018-12-19T02:12:42.732Z,44.70
2018-12-19T02:15:09.945Z,44.60
2018-12-19T02:17:37.164Z,44.30
2018-12-19T02:20:04.961Z,44.60
2018-12-19T02:22:32.181Z,44.60
2018-12-19T02:24:59.393Z,44.70
2018-12-19T02:27:26.692Z,44.50
2018-12-19T02:29:55.187Z,44.30
2018-12-19T02:32:22.405Z,44.00
2018-12-19T02:34:49.620Z,44.20
2018-12-19T02:37:16.840Z,44.30
2018-12-19T02:39:44.063Z,44.40
2018-12-19T02:42:11.282Z,44.30
2018-12-19T02:44:38.501Z,44.50
2018-12-19T02:47:05.726Z,44.60
2018-12-19T02:49:32.932Z,44.40
2018-12-19T02:52:00.156Z,44.60
2018-12-19T02:54:27.371Z,44.20
2018-12-19T02:56:54.591Z,44.10
2018-12-19T02:59:21.849Z,44.20
2018-12-19T03:01:49.055Z,44.30
2018-12-19T03:04:16.275Z,44.20
2018-12-19T03:06:43.536Z,44.40
2018-12-19T03:09:10.748Z,44.40
2018-12-19T03:11:37.978Z,44.40
2018-12-19T03:14:05.191Z,44.30
2018-12-19T03:16:32.476Z,44.30
2018-12-19T03:18:59.693Z,44.00
2018-12-19T03:21:27.839Z,44.30
2018-12-19T03:23:55.971Z,44.30
2018-12-19T03:26:23.194Z,44.20
2018-12-19T03:28:50.416Z,44.30
2018-12-19T03:31:17.645Z,44.30
2018-12-19T03:33:45.795Z,44.40
2018-12-19T03:36:13.022Z,44.30
2018-12-19T03:38:41.045Z,44.20
2018-12-19T03:41:08.302Z,44.30
2018-12-19T03:43:36.452Z,44.20
2018-12-19T03:46:04.515Z,44.90
2018-12-19T03:48:38.193Z,44.40
2018-12-19T03:51:06.234Z,44.40
2018-12-19T03:53:34.296Z,44.40
2018-12-19T03:56:02.482Z,44.40
2018-12-19T03:58:29.695Z,44.40
2018-12-19T04:00:56.929Z,44.20
2018-12-19T04:03:26.094Z,44.20
2018-12-19T04:05:55.159Z,44.20
2018-12-19T04:08:22.542Z,44.20
2018-12-19T04:10:49.760Z,44.20
2018-12-19T04:13:17.914Z,44.20
2018-12-19T04:15:46.035Z,44.20
2018-12-19T04:18:14.188Z,44.00
2018-12-19T04:20:42.198Z,44.00
2018-12-19T04:23:10.258Z,44.40
2018-12-19T04:25:38.249Z,44.60
2018-12-19T04:28:05.559Z,44.60
2018-12-19T04:30:34.756Z,44.60
2018-12-19T04:33:02.815Z,44.30
2018-12-19T04:35:30.847Z,44.10
2018-12-19T04:37:58.093Z,44.20
2018-12-19T04:40:26.040Z,44.30
2018-12-19T04:42:53.258Z,44.20
2018-12-19T04:45:21.260Z,44.40
2018-12-19T04:47:48.520Z,44.50
2018-12-19T04:50:15.745Z,44.30
2018-12-19T04:52:43.831Z,44.20
2018-12-19T04:55:11.862Z,43.90
2018-12-19T04:57:40.088Z,43.70
2018-12-19T05:00:08.468Z,43.70
2018-12-19T05:02:35.690Z,44.40
2018-12-19T05:05:03.695Z,44.10
2018-12-19T05:07:31.928Z,43.80
2018-12-19T05:10:00.457Z,43.50
2018-12-19T05:12:27.722Z,43.60
2018-12-19T05:14:55.870Z,43.40
2018-12-19T05:17:23.083Z,43.40
2018-12-19T05:19:50.480Z,43.30
2018-12-19T05:22:17.691Z,43.20
2018-12-19T05:24:45.003Z,43.10
2018-12-19T05:27:12.221Z,43.20
2018-12-19T05:29:40.355Z,43.00
2018-12-19T05:32:07.572Z,43.00
2018-12-19T05:34:35.585Z,43.00
2018-12-19T05:37:03.728Z,42.80
2018-12-19T05:39:30.953Z,42.90
2018-12-19T05:41:58.169Z,42.90
2018-12-19T05:44:25.449Z,42.80
2018-12-19T05:46:52.665Z,42.70
2018-12-19T05:49:19.879Z,42.70
2018-12-19T05:51:47.886Z,42.60
2018-12-19T05:54:16.244Z,42.60
2018-12-19T05:56:44.406Z,43.00
2018-12-19T05:59:11.826Z,42.80
2018-12-19T06:01:39.061Z,42.70
2018-12-19T06:04:07.305Z,42.50
2018-12-19T06:06:34.674Z,42.60
2018-12-19T06:09:01.906Z,42.60
2018-12-19T06:11:29.122Z,42.50
2018-12-19T06:13:57.278Z,42.50
2018-12-19T06:16:25.183Z,42.50
2018-12-19T06:18:52.395Z,42.40
2018-12-19T06:21:19.634Z,42.50
2018-12-19T06:23:46.864Z,42.40
2018-12-19T06:26:14.072Z,42.40
2018-12-19T06:28:41.285Z,42.40
2018-12-19T06:31:09.406Z,42.30
2018-12-19T06:33:37.092Z,42.30
2018-12-19T06:36:04.314Z,42.20
2018-12-19T06:38:32.335Z,42.30
2018-12-19T06:40:59.551Z,42.30
2018-12-19T06:43:26.761Z,42.20
2018-12-19T06:45:54.579Z,42.20
2018-12-19T06:48:21.797Z,42.30
2018-12-19T06:50:49.006Z,42.20
2018-12-19T06:53:16.219Z,42.30
2018-12-19T06:55:43.440Z,42.30
2018-12-19T06:58:10.663Z,42.10
2018-12-19T07:00:37.888Z,42.70
2018-12-19T07:03:05.105Z,42.70
2018-12-19T07:05:32.352Z,42.30
2018-12-19T07:07:59.573Z,42.30
2018-12-19T07:10:26.807Z,42.30
2018-12-19T07:12:55.853Z,42.30
2018-12-19T07:15:23.110Z,42.30
2018-12-19T07:17:51.343Z,42.30
2018-12-19T07:20:18.604Z,42.30
2018-12-19T07:22:45.801Z,42.30
2018-12-19T07:25:13.799Z,43.00
2018-12-19T07:27:41.025Z,42.30
2018-12-19T07:30:08.244Z,42.30
2018-12-19T07:32:35.460Z,42.20
2018-12-19T07:35:02.672Z,42.20
2018-12-19T07:37:29.961Z,42.20
2018-12-19T07:39:57.319Z,42.10
2018-12-19T07:42:25.290Z,42.20
2018-12-19T07:44:52.503Z,42.10
2018-12-19T07:47:20.734Z,42.20
2018-12-19T07:49:47.949Z,42.10
2018-12-19T07:52:15.153Z,42.10
2018-12-19T07:54:42.362Z,42.00
2018-12-19T07:57:09.577Z,42.20
2018-12-19T07:59:36.791Z,42.10
2018-12-19T08:02:04.006Z,42.10
2018-12-19T08:04:31.412Z,42.10
2018-12-19T08:06:58.618Z,42.10
2018-12-19T08:09:25.916Z,42.00
2018-12-19T08:11:53.129Z,42.10
2018-12-19T08:14:20.338Z,42.10
2018-12-19T08:16:48.336Z,42.10
2018-12-19T08:19:15.558Z,42.00
2018-12-19T08:21:42.788Z,42.10
2018-12-19T08:24:10.005Z,42.10
2018-12-19T08:26:37.227Z,42.10
2018-12-19T08:29:04.484Z,42.10
2018-12-19T08:31:31.770Z,42.10
2018-12-19T08:33:59.352Z,42.10
2018-12-19T08:36:27.476Z,42.10
2018-12-19T08:38:54.686Z,42.10
2018-12-19T08:41:21.901Z,42.10
2018-12-19T08:43:50.099Z,42.10
2018-12-19T08:46:18.120Z,42.10
2018-12-19T08:48:45.333Z,42.00
2018-12-19T08:51:12.542Z,42.00
2018-12-19T08:53:40.536Z,42.00
2018-12-19T08:56:07.750Z,42.00
2018-12-19T08:58:34.963Z,42.00
2018-12-19T09:01:02.180Z,42.00
2018-12-19T09:03:29.386Z,42.10
2018-12-19T09:05:57.512Z,42.10
2018-12-19T09:08:25.545Z,42.10
2018-12-19T09:10:54.155Z,42.10
2018-12-19T09:13:21.408Z,42.00
2018-12-19T09:15:50.837Z,42.00
2018-12-19T09:18:18.427Z,42.30
2018-12-19T09:20:45.761Z,42.10
2018-12-19T09:23:14.039Z,42.10
2018-12-19T09:25:42.037Z,42.10
2018-12-19T09:28:10.212Z,42.00
2018-12-19T09:30:37.426Z,42.10
2018-12-19T09:33:04.627Z,42.10
2018-12-19T09:35:32.790Z,42.00
2018-12-19T09:37:59.999Z,42.10
2018-12-19T09:40:27.206Z,42.00
2018-12-19T09:42:55.194Z,42.10
2018-12-19T09:45:22.404Z,42.70
2018-12-19T09:47:50.413Z,42.30
2018-12-19T09:50:18.559Z,42.20
2018-12-19T09:52:46.736Z,42.00
2018-12-19T09:55:14.782Z,42.20
2018-12-19T09:57:42.868Z,42.30
2018-12-19T10:00:12.104Z,42.10
2018-12-19T10:02:39.867Z,42.10
2018-12-19T10:05:08.122Z,42.10
2018-12-19T10:07:35.797Z,42.10
2018-12-19T10:10:04.038Z,42.10
2018-12-19T10:12:31.248Z,42.20
2018-12-19T10:14:59.370Z,42.10
2018-12-19T10:17:26.623Z,42.10
2018-12-19T10:19:54.762Z,42.20
2018-12-19T10:22:27.807Z,42.10
2018-12-19T10:25:01.745Z,42.10
2018-12-19T10:27:29.036Z,42.00
2018-12-19T10:29:56.255Z,42.10
2018-12-19T10:32:25.077Z,42.10
2018-12-19T10:34:52.286Z,42.10
2018-12-19T10:37:19.561Z,42.20
2018-12-19T10:39:47.602Z,42.00
2018-12-19T10:42:14.816Z,42.30
2018-12-19T10:44:42.025Z,42.10
2018-12-19T10:47:09.209Z,42.20
2018-12-19T10:49:36.421Z,42.30
2018-12-19T10:52:03.682Z,42.30
2018-12-19T10:54:30.945Z,42.10
2018-12-19T10:56:58.161Z,42.20
2018-12-19T10:59:25.376Z,42.10
2018-12-19T11:01:52.622Z,42.00
2018-12-19T11:04:19.849Z,42.00
2018-12-19T11:06:47.999Z,42.00
2018-12-19T11:09:16.253Z,41.90
2018-12-19T11:11:43.498Z,41.90
2018-12-19T11:14:11.647Z,42.00
2018-12-19T11:16:39.781Z,42.10
2018-12-19T11:19:07.923Z,42.00
2018-12-19T11:21:36.094Z,41.90
2018-12-19T11:24:04.421Z,42.00
2018-12-19T11:26:32.625Z,42.00
2018-12-19T11:29:00.777Z,42.00
2018-12-19T11:31:28.973Z,41.90
2018-12-19T11:33:56.981Z,41.80
2018-12-19T11:36:26.182Z,41.90
2018-12-19T11:38:54.331Z,42.00
2018-12-19T11:41:22.508Z,42.20
2018-12-19T11:43:49.723Z,42.10
2018-12-19T11:46:17.804Z,42.00
2018-12-19T11:48:45.830Z,42.00
2018-12-19T11:51:14.007Z,42.10
2018-12-19T11:53:42.189Z,41.90
2018-12-19T11:56:10.355Z,42.10
2018-12-19T11:58:38.388Z,42.10
2018-12-19T12:01:06.561Z,42.10
2018-12-19T12:03:34.699Z,42.10
2018-12-19T12:06:02.900Z,42.00
2018-12-19T12:08:30.126Z,42.10
2018-12-19T12:10:57.393Z,42.10
2018-12-19T12:13:24.772Z,42.10
2018-12-19T12:15:52.847Z,42.10
2018-12-19T12:18:20.893Z,42.10
2018-12-19T12:20:48.951Z,42.10
2018-12-19T12:23:17.024Z,42.10
2018-12-19T12:25:45.044Z,42.10
2018-12-19T12:28:13.404Z,42.00
2018-12-19T12:30:40.749Z,42.20
2018-12-19T12:33:08.006Z,42.10
2018-12-19T12:35:36.188Z,42.10
2018-12-19T12:38:04.398Z,42.80
2018-12-19T12:40:32.447Z,42.30
2018-12-19T12:43:00.633Z,42.20
2018-12-19T12:45:28.641Z,42.50
2018-12-19T12:47:56.768Z,42.30
2018-12-19T12:50:24.634Z,42.30
2018-12-19T12:52:51.863Z,42.40
2018-12-19T12:55:19.094Z,42.20
2018-12-19T12:57:46.314Z,42.50
2018-12-19T13:00:13.532Z,42.40
2018-12-19T13:02:40.754Z,42.20
2018-12-19T13:05:08.827Z,41.90
2018-12-19T13:07:36.052Z,41.90
2018-12-19T13:10:04.165Z,41.70
2018-12-19T13:12:31.375Z,41.70
2018-12-19T13:14:58.637Z,41.70
2018-12-19T13:17:25.855Z,41.70
2018-12-19T13:19:53.071Z,41.60
2018-12-19T13:22:20.293Z,41.50
2018-12-19T13:24:47.518Z,41.60
2018-12-19T13:27:15.476Z,41.50
2018-12-19T13:29:42.698Z,41.60
2018-12-19T13:32:11.029Z,41.60
2018-12-19T13:34:38.248Z,41.50
2018-12-19T13:37:06.291Z,41.50
2018-12-19T13:39:33.500Z,41.50
2018-12-19T13:42:05.493Z,41.50
2018-12-19T13:44:30.006Z,41.50
2018-12-19T13:46:57.253Z,41.50
2018-12-19T13:49:25.760Z,41.50
2018-12-19T13:51:53.044Z,41.50
2018-12-19T13:54:21.094Z,41.50
2018-12-19T13:56:48.316Z,41.40
2018-12-19T13:59:15.536Z,41.50
2018-12-19T14:01:43.717Z,41.50
2018-12-19T14:04:10.964Z,41.50
2018-12-19T14:06:38.180Z,41.50
2018-12-19T14:09:05.781Z,41.50
2018-12-19T14:11:32.996Z,41.50
2018-12-19T14:14:00.214Z,41.50
2018-12-19T14:16:28.277Z,41.50
2018-12-19T14:18:56.433Z,41.50
2018-12-19T14:21:25.107Z,41.50
2018-12-19T14:23:53.135Z,41.50
2018-12-19T14:26:20.405Z,41.50
2018-12-19T14:28:48.415Z,41.50
2018-12-19T14:31:15.928Z,41.50
2018-12-19T14:33:43.153Z,41.60
2018-12-19T14:36:10.414Z,41.50
2018-12-19T14:38:38.540Z,41.70
2018-12-19T14:41:05.754Z,41.60
2018-12-19T14:43:32.984Z,41.60
2018-12-19T14:46:00.199Z,41.70
2018-12-19T14:48:28.214Z,41.70
2018-12-19T14:50:56.478Z,41.60
2018-12-19T14:53:23.772Z,41.70
2018-12-19T14:55:51.919Z,41.70
2018-12-19T14:58:20.057Z,41.70
2018-12-19T15:00:47.273Z,41.70
2018-12-19T15:03:15.472Z,41.70
2018-12-19T15:05:42.701Z,41.40
2018-12-19T15:08:09.955Z,41.80
2018-12-19T15:10:38.092Z,41.70
2018-12-19T15:13:05.287Z,41.90
2018-12-19T15:15:33.415Z,41.80
2018-12-19T15:18:01.591Z,41.90
2018-12-19T15:23:14.163Z,42.10
2018-12-19T15:25:42.178Z,42.10
2018-12-19T15:28:10.187Z,42.00
2018-12-19T15:30:38.409Z,42.10
2018-12-19T15:33:06.667Z,42.20
2018-12-19T15:35:34.736Z,42.10
2018-12-19T15:38:01.969Z,42.10
2018-12-19T15:40:30.163Z,42.10
2018-12-19T15:42:58.173Z,42.10
2018-12-19T15:45:26.307Z,42.10
2018-12-19T15:47:54.996Z,42.10
2018-12-19T15:50:23.053Z,43.00
2018-12-19T15:52:51.082Z,43.80
2018-12-19T15:55:19.220Z,43.00
2018-12-19T15:57:46.425Z,42.60
2018-12-19T16:00:15.855Z,42.40
2018-12-19T16:02:43.255Z,42.40
2018-12-19T16:05:10.490Z,42.30
2018-12-19T16:07:38.550Z,42.40
2018-12-19T16:10:07.726Z,42.40
2018-12-19T16:12:39.250Z,42.50
2018-12-19T16:15:06.367Z,42.40
2018-12-19T16:17:33.624Z,42.40
2018-12-19T16:20:01.777Z,42.40
2018-12-19T16:22:31.192Z,42.50
2018-12-19T16:24:58.597Z,42.40
2018-12-19T16:27:25.825Z,42.40
2018-12-19T16:29:53.070Z,42.40
2018-12-19T16:32:21.117Z,42.40
2018-12-19T16:34:48.392Z,42.40
2018-12-19T16:37:15.618Z,42.40
2018-12-19T16:39:42.876Z,42.40
2018-12-19T16:42:10.122Z,43.00
2018-12-19T16:44:37.367Z,42.40
2018-12-19T16:47:04.620Z,42.40
2018-12-19T16:49:32.630Z,42.40
2018-12-19T16:51:59.894Z,42.40
2018-12-19T16:54:27.125Z,42.40
2018-12-19T16:56:55.115Z,42.40
2018-12-19T16:59:22.347Z,42.50
2018-12-19T17:01:49.593Z,42.40
2018-12-19T17:04:16.808Z,42.40
2018-12-19T17:06:44.065Z,42.50
2018-12-19T17:09:12.196Z,42.40
2018-12-19T17:11:39.455Z,42.50
2018-12-19T17:14:06.668Z,42.50
2018-12-19T17:16:33.937Z,42.50
2018-12-19T17:19:02.129Z,42.40
2018-12-19T17:21:29.341Z,42.50
2018-12-19T17:23:56.614Z,42.50
2018-12-19T17:26:24.921Z,42.60
2018-12-19T17:28:52.141Z,42.60
2018-12-19T17:31:19.358Z,42.50
2018-12-19T17:33:46.571Z,42.50
2018-12-19T17:36:13.785Z,42.50
2018-12-19T17:38:41.857Z,42.50
2018-12-19T17:41:09.072Z,42.50
2018-12-19T17:43:37.277Z,42.60
2018-12-19T17:46:05.310Z,42.50
2018-12-19T17:48:32.519Z,42.60
2018-12-19T17:51:00.812Z,42.60
2018-12-19T17:53:28.082Z,42.60
2018-12-19T17:55:56.835Z,42.60
2018-12-19T17:58:25.973Z,42.60
2018-12-19T18:00:56.844Z,42.70
2018-12-19T18:03:24.942Z,42.80
2018-12-19T18:05:52.166Z,42.80
2018-12-19T18:08:19.425Z,42.70
2018-12-19T18:10:46.693Z,42.80
2018-12-19T18:13:13.953Z,43.30
2018-12-19T18:15:41.218Z,42.70
2018-12-19T18:18:08.448Z,42.80
2018-12-19T18:20:35.712Z,42.80
2018-12-19T18:23:03.802Z,42.70
2018-12-19T18:25:31.050Z,42.80
2018-12-19T18:27:58.290Z,42.80
2018-12-19T18:30:26.447Z,42.80
2018-12-19T18:32:54.392Z,42.80
2018-12-19T18:35:22.714Z,42.80
2018-12-19T18:37:50.071Z,43.00
2018-12-19T18:40:17.295Z,43.60
2018-12-19T18:42:44.562Z,42.90
2018-12-19T18:45:12.241Z,43.00
2018-12-19T18:47:39.665Z,42.90
2018-12-19T18:50:07.207Z,42.80
2018-12-19T18:52:34.433Z,42.80
2018-12-19T18:55:02.487Z,43.00
2018-12-19T18:57:29.717Z,43.00
2018-12-19T18:59:56.958Z,43.10
2018-12-19T19:02:24.331Z,43.10
2018-12-19T19:04:51.831Z,43.00
2018-12-19T19:07:19.111Z,43.10
2018-12-19T19:09:47.419Z,43.10
2018-12-19T19:12:14.659Z,43.00
2018-12-19T19:14:41.879Z,43.00
2018-12-19T19:17:09.093Z,43.00
2018-12-19T19:19:37.274Z,43.10
2018-12-19T19:22:04.502Z,43.10
2018-12-19T19:24:31.832Z,43.10
2018-12-19T19:26:59.057Z,43.20
2018-12-19T19:29:26.405Z,43.20
2018-12-19T19:31:53.985Z,43.10
2018-12-19T19:34:25.077Z,43.20
2018-12-19T19:36:51.371Z,43.30
2018-12-19T19:39:19.569Z,43.20
2018-12-19T19:41:46.906Z,43.00
2018-12-19T19:44:15.119Z,43.00
2018-12-19T19:46:42.342Z,43.00
2018-12-19T19:49:10.507Z,42.80
2018-12-19T19:51:38.603Z,42.80
2018-12-19T19:54:05.985Z,42.80
2018-12-19T19:56:34.035Z,42.60
2018-12-19T19:59:02.222Z,42.10
2018-12-19T20:01:29.453Z,43.30
2018-12-19T20:03:57.644Z,42.70
2018-12-19T20:06:25.911Z,42.80
2018-12-19T20:08:53.139Z,42.80
2018-12-19T20:11:21.358Z,42.60
2018-12-19T20:13:48.616Z,42.80
2018-12-19T20:16:16.804Z,43.00
2018-12-19T20:18:44.036Z,42.80
2018-12-19T20:21:12.324Z,42.80
2018-12-19T20:23:39.687Z,42.90
2018-12-19T20:26:07.920Z,42.90
2018-12-19T20:28:35.156Z,43.10
2018-12-19T20:31:03.321Z,42.90
2018-12-19T20:33:30.655Z,43.00
2018-12-19T20:35:57.854Z,42.80
2018-12-19T20:38:26.138Z,43.00
2018-12-19T20:40:54.700Z,43.10
2018-12-19T20:43:22.898Z,43.00
2018-12-19T20:45:50.939Z,43.00
2018-12-19T20:48:18.148Z,42.90
2018-12-19T20:50:46.199Z,43.20
2018-12-19T20:53:14.399Z,43.00
2018-12-19T20:55:41.639Z,42.80
2018-12-19T20:58:08.907Z,42.80
2018-12-19T21:00:36.308Z,42.80
2018-12-19T21:03:03.614Z,42.80
2018-12-19T21:05:31.791Z,43.00
2018-12-19T21:07:59.022Z,43.20
2018-12-19T21:10:27.205Z,43.00
2018-12-19T21:12:55.324Z,43.30
2018-12-19T21:15:22.549Z,43.20
2018-12-19T21:17:56.510Z,43.40
2018-12-19T21:20:24.213Z,43.50
2018-12-19T21:22:52.386Z,44.00
2018-12-19T21:25:20.427Z,43.60
2018-12-19T21:27:48.617Z,44.00
2018-12-19T21:30:16.654Z,43.50
2018-12-19T21:32:44.728Z,44.00
2018-12-19T21:35:11.938Z,43.70
2018-12-19T21:37:39.195Z,43.60
2018-12-19T21:40:06.546Z,44.00
2018-12-19T21:42:34.606Z,43.90
2018-12-19T21:45:02.628Z,44.00
2018-12-19T21:47:30.092Z,44.40
2018-12-19T21:49:57.327Z,44.00
2018-12-19T21:52:25.159Z,43.50
2018-12-19T21:54:52.422Z,43.60
2018-12-19T21:57:20.608Z,43.60
2018-12-19T21:59:47.819Z,43.90
2018-12-19T22:02:15.106Z,43.50
2018-12-19T22:04:42.409Z,43.40
2018-12-19T22:07:09.623Z,43.90
2018-12-19T22:09:36.845Z,43.20
2018-12-19T22:12:04.096Z,43.40
2018-12-19T22:14:31.336Z,43.80
2018-12-19T22:17:05.144Z,43.80
2018-12-19T22:19:32.362Z,43.80
2018-12-19T22:21:59.584Z,44.40
2018-12-19T22:24:26.910Z,44.40
2018-12-19T22:26:56.036Z,44.10
2018-12-19T22:29:23.343Z,43.60
2018-12-19T22:31:51.089Z,44.00
2018-12-19T22:34:18.403Z,44.00
2018-12-19T22:36:45.813Z,43.90
2018-12-19T22:39:15.070Z,43.90
2018-12-19T22:41:42.447Z,44.10
2018-12-19T22:44:09.762Z,44.30
2018-12-19T22:46:37.005Z,43.80
2018-12-19T22:49:04.271Z,44.20
2018-12-19T22:51:31.481Z,43.80
2018-12-19T22:53:58.822Z,43.80
2018-12-19T22:56:26.243Z,44.00
2018-12-19T22:58:54.007Z,44.00
2018-12-19T23:01:26.891Z,44.00
2018-12-19T23:03:59.951Z,44.40
2018-12-19T23:06:27.167Z,43.90
2018-12-19T23:08:56.310Z,44.00
2018-12-19T23:11:24.104Z,44.10
2018-12-19T23:13:52.489Z,44.10
2018-12-19T23:16:19.865Z,44.10
2018-12-19T23:18:48.175Z,44.00
2018-12-19T23:21:15.392Z,44.20
2018-12-19T23:23:42.672Z,43.80
2018-12-19T23:26:09.979Z,43.90
2018-12-19T23:28:37.285Z,43.90
2018-12-19T23:31:04.568Z,44.30
2018-12-19T23:33:31.990Z,44.00
2018-12-19T23:35:59.351Z,44.20
2018-12-19T23:38:26.647Z,44.00
2018-12-19T23:40:54.733Z,44.80
2018-12-19T23:43:23.049Z,44.10
2018-12-19T23:45:50.434Z,44.20
2018-12-19T23:48:17.716Z,44.10
2018-12-19T23:50:45.004Z,43.90
2018-12-19T23:53:12.318Z,44.20
2018-12-19T23:55:39.577Z,44.30
2018-12-19T23:58:06.836Z,44.10
